Regional Weather Synopsis
Issued by NWS Denver/Boulder, CO

Current Version | Previous Version | Text Only | Print | Product List | Glossary On
Versions: 1 2 3 4 5 6 7 8 9 10 11 12 13 14 15 16 17 18 19 20 21 22 23 24 25 26 27 28 29 30 31 32 33 34 35 36 37 38 39 40 41 42 43 44 45 46 47 48 49 50
000
NZUS99 KBOU 252148
SYNBOU

Hot-Air Balloon Forecast for Colorado
National Weather Service Denver/Boulder, Colorado
1545 MDT Sunday, September 25, 2022


* * * * * Northeast Colorado * * * * *

METAR KFNL 252056Z VRB03KT 10SM CLR 22/03 A3034 RMK AO2 SLP228 T02170028
        58019
METAR KFNL 251956Z 19008KT 10SM CLR 22/03 A3036 RMK AO2 SLP234
       T02220033
METAR KFNL 251856Z 14003KT 10SM CLR 21/04 A3038 RMK AO2 SLP244
       T02110039

METAR KGXY 252056Z VRB05KT 10SM CLR 23/04 A3032 RMK AO2 SLP248 T02330039
        58022 $
METAR KGXY 251956Z 09007KT 10SM CLR 22/03 A3035 RMK AO2 SLP257 T02170033
       $
METAR KGXY 251856Z 12007KT 070V140 10SM CLR 21/04 A3037 RMK AO2 SLP266
       T02060039 $

METAR KLMO 252135Z AUTO 00000KT 10SM CLR 24/02 A3033 RMK AO2
       T02380015
METAR KLMO 252115Z AUTO 00000KT 10SM CLR 24/02 A3033 RMK AO2
       T02400020
METAR KLMO 252055Z AUTO 00000KT 7SM CLR 24/02 A3034 RMK AO2
       T02370016

METAR KBDU 252135Z AUTO 12003KT 10SM CLR 22/01 A3032 RMK AO2
METAR KBDU 252115Z AUTO 00000KT 10SM CLR 22/01 A3033 RMK AO2
METAR KBDU 252055Z AUTO 00000KT 10SM CLR 22/02 A3033 RMK AO2

METAR KEIK 252135Z AUTO 35003KT 10SM CLR 23/02 A3031 RMK AO2 T02290020
       PWINO
METAR KEIK 252115Z AUTO 36006KT 10SM CLR 23/01 A3032 RMK AO2 T02290014
       PWINO
METAR KEIK 252055Z AUTO 36004KT 10SM CLR 23/02 A3032 RMK AO2 T02280017
       PWINO

KBJC 251810Z 2518/2618 03007KT P6SM FEW220
     FM260100 09006KT P6SM SCT220
     FM260600 24006KT P6SM SKC
     FM260900 33006KT P6SM SKC
     FM261500 VRB05KT P6SM SKC
METAR KBJC 252047Z 35005KT 10SM SKC 22/02 A3035
METAR KBJC 251947Z 35007KT 10SM SKC 22/02 A3038
METAR KBJC 251845Z 03007KT 10SM SKC 20/01 A3039

KDEN 252104Z 2521/2624 05007KT P6SM SCT220
     FM260200 12006KT P6SM FEW220
     FM260600 21008KT P6SM SKC
     FM261500 VRB06KT P6SM SKC
     FM261800 01010KT P6SM FEW120
METAR KDEN 252053Z VRB03KT 10SM FEW100 FEW180 SCT250 24/00 A3031 RMK AO2
       SLP200 T02390000 56020
METAR KDEN 251953Z VRB03KT 10SM FEW080 FEW150 SCT250 23/01 A3033 RMK AO2
       SLP209 T02330006
SPECI KDEN 251916Z VRB06KT 10SM FEW080 FEW150 SCT250 23/01 A3035 RMK AO2
       T02330011


KBKF 251700Z 2517/2623 VRB06KT 9999 SKC 510033 QNH3027INS
      TX25/2622Z TN08/2613Z
METAR KBKF 252058Z 03009KT 10SM FEW100 FEW220 25/00 A3032 RMK AO2A
        SLP210 T02490004 56020
METAR KBKF 251958Z 04005KT 10SM FEW090 FEW220 24/01 A3034 RMK AO2A
        SLP217 T02410010
METAR KBKF 251858Z 08010KT 10SM FEW080 FEW220 23/02 A3036 RMK AO2A
        SLP224 T02340017

KAPA 251740Z 2518/2618 06006KT P6SM SCT220
     FM252100 04009KT P6SM SCT220
     FM260200 12006KT P6SM FEW220
     FM260600 19008KT P6SM SKC
     FM261500 VRB06KT P6SM SKC
METAR KAPA 252053Z 34010G16KT 10SM FEW100 FEW150 23/01 A3032 RMK AO2
       SLP219 T02330006 58015
METAR KAPA 251953Z VRB03KT 10SM FEW100 FEW150 23/M01 A3034 RMK AO2
       SLP223 T02331006
METAR KAPA 251853Z VRB03KT 10SM FEW100 FEW150 22/01 A3036 RMK AO2 SLP229
       T02170006

METAR KMNH 252135Z AUTO 16004KT 10SM CLR 20/00 A3040 RMK AO2
METAR KMNH 252115Z AUTO 25003KT 10SM CLR 20/00 A3041 RMK AO2
METAR KMNH 252055Z AUTO 20008KT 140V220 10SM CLR 20/00 A3041 RMK AO2

METAR KFMM 252135Z AUTO 18003KT 10SM CLR 22/03 A3030 RMK AO2
METAR KFMM 252115Z AUTO 00000KT 10SM CLR 22/02 A3031 RMK AO2
METAR KFMM 252055Z AUTO 17004KT 10SM CLR 23/03 A3031 RMK AO2

METAR KSTK 252135Z AUTO 14008KT 10SM CLR 24/05 A3026 RMK AO2
METAR KSTK 252115Z AUTO 16003KT 10SM CLR 23/05 A3028 RMK AO2
METAR KSTK 252055Z AUTO 02003KT 10SM CLR 24/04 A3028 RMK AO2

METAR KAKO 252053Z AUTO VRB03KT 10SM CLR 22/02 A3032 RMK AO2 SLP230
       T02170017 58018
METAR KAKO 251953Z AUTO VRB06KT 10SM CLR 22/02 A3034 RMK AO2 SLP240
       T02220022
METAR KAKO 251853Z AUTO 01007KT 310V030 10SM CLR 21/02 A3036 RMK AO2
       SLP245 T02110022

METAR KLIC 252055Z AUTO 15008KT 10SM CLR 24/00 A3033 RMK AO2 SLP207
        T02390000 58022
METAR KLIC 251955Z AUTO 10SM CLR 23/00 A3035 RMK AO2 SLP217
       T02280000
METAR KLIC 251855Z AUTO 13007G16KT 10SM CLR 22/01 A3038 RMK AO2 SLP232
       T02170006

METAR KHEQ 252130Z AUTO 31004KT 10SM CLR 26/02 A3027 RMK AO2
METAR KHEQ 252110Z AUTO 31004KT 10SM CLR 26/02 A3027 RMK AO2
METAR KHEQ 252050Z AUTO 33004KT 10SM CLR 26/02 A3028 RMK AO2

METAR K2V6 252135Z AUTO 00000KT 10SM CLR 23/M33 A3029 RMK AO2
METAR K2V6 252118Z AUTO 33005KT 10SM CLR 23/M30 A3029 RMK AO2
METAR K2V6 252056Z AUTO 07005KT 10SM CLR 23/M28 A3030 RMK AO2

METAR K2V5 252135Z AUTO 30005KT 10SM CLR 25/01 A3027 RMK AO2
METAR K2V5 252115Z AUTO 00000KT 10SM CLR 25/01 A3028 RMK AO2
METAR K2V5 252055Z AUTO 30008KT 10SM CLR 25/01 A3029 RMK AO2

METAR KITR 252053Z AUTO VRB04KT 10SM CLR 24/02 A3030 RMK AO2 SLP222
       T02390022 56023 $
METAR KITR 251953Z AUTO VRB03KT 10SM CLR 23/01 A3032 RMK AO2 SLP231
       T02280011 $
METAR KITR 251853Z AUTO 31005KT 10SM CLR 22/02 A3035 RMK AO2 SLP241
       T02220017 $

Sunrise/Sunset for 09/25/2022
Fort Collins - 06:51:06 MDT / 18:52:40 MDT
Denver       - 06:50:38 MDT / 18:52:17 MDT
Sterling     - 06:43:42 MDT / 18:45:15 MDT

Denver/Boulder (KFTG) 09/25/22 21:36 UTC
Radar VAD winds      Height      Dir/Spd(kt)
                  16800 FT MSL...318/022
                  16000 FT MSL...317/026
                  15000 FT MSL...304/030
                  14500 FT MSL...303/029
                  14000 FT MSL...303/027
                  13000 FT MSL...298/021
                  12700 FT MSL...299/019
                  12000 FT MSL...311/020
                  11200 FT MSL...330/013
                  11000 FT MSL...318/017
                  10000 FT MSL...067/005
                  10000 FT MSL...044/007
                   9000 FT MSL...058/006
                   8900 FT MSL...060/007
                   8100 FT MSL...056/006
                   8000 FT MSL...058/006
                   7300 FT MSL...052/007
                   7000 FT MSL...061/007
                   6600 FT MSL...051/006
                   6200 FT MSL...063/011
                   6000 FT MSL...064/010
                   5900 FT MSL...071/011

Denver/Boulder Aviation Discussion
Issued at 1958 UTC Sunday, September 25, 2022

.AVIATION...(For the 18Z TAFS through 18Z Monday afternoon)
Issued at 1120 AM MDT Sun Sep 25 2022
Weak winds are expected at DIA. They should adhere to fairly
normal diurnal wind patterns. There will be no ceiling issues.


* * * * * Southeast Colorado * * * * *

METAR K4BM 252135Z AUTO 07004KT 10SM CLR 13/M03 A3067 RMK AO2
METAR K4BM 252115Z AUTO 29005KT 10SM CLR 13/M05 A3067 RMK AO2
METAR K4BM 252055Z AUTO 24004KT 10SM CLR 15/M04 A3067 RMK AO2

METAR KAFF 252056Z AUTO 19009KT 10SM CLR 20/M00 A3036 RMK AO2 SLP218
        T02021005 57017
SPECI KAFF 252004Z AUTO 20011KT 10SM CLR 20/M00 A3037 RMK AO2 WSHFT 01
       SLP216
METAR KAFF 251956Z AUTO 17010G16KT 10SM CLR 20/M00 A3038 RMK AO2 SLP220
        T02001001

KCOS 251734Z 2518/2618 18010G20KT P6SM SKC
     FM260300 10005KT P6SM SKC
     FM260700 02005KT P6SM SKC
     FM261600 03008KT P6SM SKC
METAR KCOS 252054Z 16012KT 10SM FEW070 FEW150 22/00 A3038 RMK AO2 SLP221
        T02170000 56019
METAR KCOS 251954Z 16010G18KT 10SM CLR 21/01 A3040 RMK AO2 SLP225 T02110011
METAR KCOS 251854Z 15012KT 10SM CLR 19/01 A3043 RMK AO2 SLP242
       T01940006

METAR KABH 252056Z AUTO 20010KT 10SM CLR 21/01 A3038 RMK AO2 SLP241
        T02140005 57021
METAR KABH 251956Z AUTO 19009KT 10SM CLR 20/00 A3040 RMK AO2 SLP243
        T02030002
METAR KABH 251856Z AUTO 20010KT 10SM CLR 19/00 A3043 RMK AO2 SLP259
        T01900001

METAR KFLY 252135Z AUTO 16009G18KT 130V190 CLR 21/00 A3041 RMK AO2
       T02051002 PWINO
METAR KFLY 252115Z AUTO 19009G20KT 140V210 CLR 20/00 A3042 RMK AO2
       T02041003 PWINO
METAR KFLY 252055Z AUTO 19012G21KT 160V230 CLR 21/00 A3042 RMK AO2
        T02071001 PWINO

METAR KFCS 252056Z AUTO 12011KT 10SM CLR 22/M00 A3032 RMK AO2 SLP224
        T02171003 57021 $
METAR KFCS 251956Z AUTO 15014KT 10SM CLR 21/M00 A3034 RMK AO2 SLP236
        T02121002 $
SPECI KFCS 251919Z AUTO 18014G21KT 10SM CLR 21/M00 A3036 RMK AO2 WSHFT
       14 SLP243 $

KPUB 251734Z 2518/2618 15009KT P6SM SKC
     FM260100 09006KT P6SM SKC
     FM260400 VRB04KT P6SM SKC
     FM261600 30006KT P6SM SKC
METAR KPUB 252053Z 10006KT 10SM CLR 24/02 A3029 RMK AO2 SLP206 T02440022
       58029 $
METAR KPUB 251953Z 10SM CLR 24/02 A3032 RMK AO2 SLP217 T02390017 $
METAR KPUB 251853Z VRB03KT 10SM CLR 21/02 A3036 RMK AO2 SLP232 T02110022
       $

METAR KVTP 252135Z AUTO 08004KT 10SM CLR 14/M11 A3058 RMK AO2
METAR KVTP 252115Z AUTO 07004KT 10SM SCT070 14/M11 A3058 RMK AO2
METAR KVTP 252055Z AUTO 07006KT 10SM SCT060 13/M10 A3058 RMK AO2

METAR KTAD 252054Z AUTO 14007KT 10SM CLR 24/03 A3033 RMK AO2 SLP202
        T02390028 58030 $
METAR KTAD 251954Z AUTO VRB04KT 10SM CLR 21/03 A3036 RMK AO2 SLP223
       T02110028 $
METAR KTAD 251854Z AUTO VRB04KT 10SM CLR 20/02 A3040 RMK AO2 SLP235
        T02000022 $

METAR KLHX 252053Z AUTO VRB03KT 10SM CLR 24/02 A3029 RMK AO2 SLP212
       T02390017 58026 $
METAR KLHX 251953Z AUTO 10SM CLR 23/02 A3032 RMK AO2 SLP224 T02330022
       $
METAR KLHX 251853Z AUTO VRB03KT 10SM CLR 22/02 A3036 RMK AO2 SLP234
       T02170022 $

METAR KLAA 252053Z AUTO VRB04KT 10SM CLR 26/02 A3026 RMK AO2 SLP212
        T02560022 56025
METAR KLAA 251953Z AUTO VRB05KT 10SM CLR 24/03 A3028 RMK AO2 SLP221
       T02390028
METAR KLAA 251853Z AUTO 10SM CLR 24/03 A3031 RMK AO2 SLP231
       T02390033

METAR KSPD 252056Z AUTO VRB03KT 24/01 A3029 RMK AO1 SLP209 T02440011
       56021
METAR KSPD 251956Z AUTO VRB06KT 24/02 A3031 RMK AO1 SLP214 T02440017
METAR KSPD 251856Z AUTO 23/01 A3034 RMK AO1 SLP225 T02280011

Sunrise/Sunset for 09/25/2022
Burlington - 06:39:51 MDT / 18:41:33 MDT
Pueblo     - 06:49:10 MDT / 18:51:01 MDT
Lamar      - 06:41:09 MDT / 18:43:01 MDT

Pueblo (KPUX) 09/25/22 21:35 UTC
Radar VAD winds      Height      Dir/Spd(kt)
                  17000 FT MSL...306/018
                  16600 FT MSL...321/025
                  16000 FT MSL...321/025
                  15000 FT MSL...313/026
                  14300 FT MSL...305/026
                  14000 FT MSL...303/026
                  13000 FT MSL...299/026
                  12400 FT MSL...298/026
                  12000 FT MSL...298/023
                  11000 FT MSL...288/018
                  10900 FT MSL...288/016
                   8600 FT MSL...118/008
                   8000 FT MSL...144/007
                   7800 FT MSL...136/008
                   7000 FT MSL...134/008
                   7000 FT MSL...132/009
                   6300 FT MSL...125/009
                   6000 FT MSL...137/010
                   5900 FT MSL...132/010
                   5700 FT MSL...138/009

Pueblo Aviation Discussion
Issued at 2133 UTC Sunday, September 25, 2022

.AVIATION...(For the 00Z TAFS through 00Z Monday evening)
Issued at 332 PM MDT Sun Sep 25 2022
VFR conditions expected at the TAF sites with breezy southerly winds
gusting up to 20 kts, especially for KCOS.  These will weaken this
evening.  Generally light diurnally driven winds are expected for
Monday with any thunderstorm activity across the southern mountains
not likely to impact the KALS terminal. -KT


* * * * * Northwest Colorado * * * * *

METAR KCAG 252053Z AUTO 00000KT 10SM CLR 23/00 A3036 RMK AO2 SLP236
       T02330000 58016 $
METAR KCAG 251953Z AUTO VRB05KT 10SM CLR 22/02 A3038 RMK AO2 SLP246
       T02220017 $
METAR KCAG 251853Z AUTO VRB04KT 10SM CLR 21/01 A3040 RMK AO2 SLP256
       T02060006 $

METAR KHDN 252056Z AUTO 27010KT 10SM CLR 22/M01 A3038 RMK AO2 SLP232
        T02171006 58016
METAR KHDN 251956Z AUTO 26007KT 240V300 10SM CLR 21/M01 A3041 RMK AO2
       SLP242 T02111006
METAR KHDN 251856Z AUTO 33003KT 8SM CLR 19/M01 A3042 RMK AO2 SLP249
       T01941006

METAR KSBS 252135Z AUTO 23007KT 10SM CLR 22/00 A3036 RMK AO1
       T02191003
METAR KSBS 252116Z AUTO 22006KT 10SM CLR 22/00 A3036 RMK AO1
       T02181002
METAR KSBS 252056Z AUTO 25005KT 10SM CLR 22/00 A3037 RMK AO1
       T02210001

METAR KC07 252135Z AUTO 27004KT 10SM CLR 13/M01 A3063 RMK AO2
METAR KC07 252115Z AUTO 29004KT 10SM CLR 13/M01 A3063 RMK AO2
METAR KC07 252055Z AUTO 34003KT 10SM CLR 13/M01 A3063 RMK AO2

METAR K33V 252135Z AUTO 29005KT 10SM CLR 19/M02 A3046 RMK AO1
METAR K33V 252115Z AUTO 35005KT 10SM CLR 18/M02 A3046 RMK AO1
METAR K33V 252055Z AUTO 35005G14KT 300V030 10SM CLR 19/M02 A3046 RMK
       AO1

METAR KEEO 252053Z AUTO 24009KT 10SM CLR 23/02 A3035 RMK AO2 SLP219
       T02280017 56017 $
METAR KEEO 251953Z AUTO 23008KT 10SM CLR 22/01 A3037 RMK AO2 SLP223
       T02170006 $
METAR KEEO 251853Z AUTO 21007KT 10SM CLR 20/02 A3039 RMK AO2 SLP230
       T02000017 $

METAR K20V 252134Z AUTO 05003KT 10SM CLR 23/M02 A3039 RMK AO2
METAR K20V 252114Z AUTO 03005KT 10SM CLR 23/M01 A3040 RMK AO2
METAR K20V 252054Z AUTO 36003KT 10SM CLR 23/M02 A3040 RMK AO2

METAR KGNB 252134Z AUTO 24003KT 10SM CLR 21/M02 A3043 RMK AO2
       T02121024
METAR KGNB 252114Z AUTO 22006KT 10SM CLR 21/M03 A3043 RMK AO2
       T02081029
METAR KGNB 252054Z AUTO 20006KT 10SM CLR 20/M04 A3044 RMK AO2
       T02031036

METAR K0CO 252135Z AUTO 32006G16KT 10SM CLR 07/M06 A3072 RMK AO2
METAR K0CO 252115Z AUTO 33008KT 311V021 10SM CLR 08/M06 A3072 RMK
       AO2
METAR K0CO 252055Z AUTO 02006KT 10SM CLR 08/M06 A3072 RMK AO2

METAR KC99 252107Z AUTO 07004KT 10SM CLR 11/M01 A3063 RMK AO2
METAR KC99 252051Z AUTO 06003KT 10SM CLR 10/M01 A3063 RMK AO2
METAR KC99 252040Z AUTO 07005KT 10SM CLR 11/00 A3063 RMK AO2

KGJT 251720Z 2518/2618 18008KT P6SM SKC
     FM252000 30006KT P6SM SKC
     FM260200 03005KT P6SM SKC
     FM260500 09007KT P6SM FEW250
METAR KGJT 252053Z VRB04KT 10SM CLR 26/02 A3024 RMK AO2 SLP185 T02610017
       58022
METAR KGJT 251953Z VRB03KT 10SM CLR 25/01 A3027 RMK AO2 SLP197
       T02500006
METAR KGJT 251853Z 10SM CLR 23/00 A3030 RMK AO2 SLP206 T02330000

KRIL 251720Z 2518/2618 VRB03KT P6SM SKC
     FM252100 29006KT P6SM SKC
     FM260200 VRB03KT P6SM SKC
METAR KRIL 252053Z AUTO 31004KT 10SM CLR 26/M01 A3027 RMK AO2 SLP196
       T02611006 58026
METAR KRIL 251953Z AUTO 22003KT 10SM CLR 24/M03 A3030 RMK AO2 SLP211
       T02441028
METAR KRIL 251853Z AUTO 05004KT 10SM CLR 23/00 A3033 RMK AO2 SLP220
       T02280000

METAR K5SM 252135Z AUTO 29006KT 10SM CLR 14/M07 A3065 RMK AO2
METAR K5SM 252115Z AUTO 30004KT 10SM CLR 14/M08 A3065 RMK AO2
METAR K5SM 252055Z AUTO 26005KT 10SM CLR 14/M06 A3065 RMK AO2

KEGE 251720Z 2518/2618 00000KT P6SM SKC
     FM252200 26007KT P6SM SKC
     FM260300 19005KT P6SM SKC
     FM260800 00000KT P6SM SKC
METAR KEGE 252056Z VRB03KT 10SM CLR 25/M07 A3035 RMK AO2 SLP168 T02501067
        56029
METAR KEGE 251956Z 27005KT 10SM CLR 22/M04 A3037 RMK AO2 SLP177
       T02221044
METAR KEGE 251856Z 00000KT 10SM CLR 19/M02 A3041 RMK AO2 SLP187
       T01941022

KASE 251720Z 2518/2618 01006KT P6SM SKC
     FM251900 33007KT P6SM SKC
     FM260200 21006KT P6SM SKC
METAR KASE 252053Z 33007KT 10SM CLR 22/M01 A3039 RMK AO2 SLP191
       T02171011 58015 $
METAR KASE 251953Z 32007G16KT 10SM CLR 21/M02 A3041 RMK AO2 SLP198
       T02111017 $
METAR KASE 251853Z 34008KT 10SM CLR 20/M02 A3043 RMK AO2 SLP208
       T02001022 $

METAR KCCU 252135Z AUTO 30011G23KT 10SM CLR 15/M07 A3070 RMK AO2
METAR KCCU 252115Z AUTO 30012G19KT 10SM CLR 15/M07 A3070 RMK AO2
METAR KCCU 252055Z AUTO 30013G18KT 10SM CLR 15/M06 A3069 RMK AO2

METAR KLXV 252053Z AUTO 31013G18KT 10SM CLR 18/M07 A3052 RMK AO2 SLP195
       T01831072 56012
METAR KLXV 251953Z AUTO 33009G15KT 10SM CLR 18/M07 A3054 RMK AO2 SLP199
       T01831067
METAR KLXV 251853Z AUTO 36005KT 10SM CLR 17/M04 A3055 RMK AO2 SLP215
       T01671044

Sunrise/Sunset for 09/25/2022
Rangely           - 07:05:55 MDT / 19:07:32 MDT
Grand Junction    - 07:04:57 MDT / 19:06:42 MDT
Steamboat Springs - 06:58:07 MDT / 18:59:41 MDT

Grand Junction (KGJX) 09/25/22 21:34 UTC
Radar VAD winds      Height      Dir/Spd(kt)
                  17000 FT MSL...029/013
                  16300 FT MSL...020/013
                  16000 FT MSL...018/013
                  15000 FT MSL...020/008
                  14600 FT MSL...190/004
                  14000 FT MSL...175/005
                  13000 FT MSL...220/005
                  12900 FT MSL...245/005
                  12000 FT MSL...257/005
                  11000 FT MSL...309/004
                  10400 FT MSL...304/002
                  10300 FT MSL...351/005
                  10100 FT MSL...053/003

Grand Junction Aviation Discussion
Issued at 2055 UTC Sunday, September 25, 2022

.AVIATION...(For the 18Z TAFS through 18Z Monday afternoon)
Issued at 1120 AM MDT Sun Sep 25 2022
Dry northwest flow will continue to bring clear/mostly clear
skies to TAF sites throughout the next 24 hours with VFR
conditions prevailing at all sites. A weak push of moisture into
the San Juan Mountains from the southeast is expected to fuel
isolated to widely scattered showers and embedded thunderstorms
after 19Z, and on through 01Z. However, this activity is not
expected to impact KTEX or KDRO. Winds will continue to be light
and terrain driven.


* * * * * Southwest Colorado * * * * *

METAR KAJZ 252135Z AUTO 19003KT 10SM CLR 28/M02 A3026 RMK AO2 T02801025
       PWINO
METAR KAJZ 252115Z AUTO 17005KT 10SM CLR 27/M01 A3026 RMK AO2 T02741009
       PWINO
METAR KAJZ 252055Z AUTO 21004KT 10SM CLR 27/M01 A3027 RMK AO2 T02711014
        PWINO

KMTJ 251720Z 2518/2618 32008KT P6SM SKC
     FM260200 15008KT P6SM SKC
     FM261400 VRB04KT P6SM SKC
METAR KMTJ 252053Z AUTO 33006KT 10SM CLR 23/02 A3030 RMK AO2 SLP200
       T02330017 58019 $
METAR KMTJ 251953Z AUTO 33006KT 10SM CLR 22/01 A3032 RMK AO2 SLP209
       T02170011 $
METAR KMTJ 251853Z AUTO 33007KT 10SM CLR 21/01 A3035 RMK AO2 SLP219
       T02060011 $

METAR KGUC 252056Z AUTO 22012KT 10SM CLR 24/M01 A3037 RMK AO2 SLP218
        T02391011 56027
METAR KGUC 251956Z AUTO 24010KT 10SM CLR 22/M02 A3040 RMK AO2 SLP228
       T02221017
METAR KGUC 251856Z AUTO 22005KT 10SM CLR 19/M01 A3044 RMK AO2 SLP247
       T01891006

METAR K7BM 252134Z AUTO 00000KT 10SM CLR 18/M01 A3053 RMK AO2
METAR K7BM 252114Z AUTO 11005KT 10SM CLR 19/M01 A3054 RMK AO2
METAR K7BM 252054Z AUTO 10006KT 10SM CLR 19/M01 A3053 RMK AO2

METAR KAEJ 252135Z AUTO 15005KT 10SM 22/M01 A3040 RMK AO2 T02191010
METAR KAEJ 252115Z AUTO 13005KT 10SM 22/M01 A3040 RMK AO2 T02161015
METAR KAEJ 252055Z AUTO 14004KT 10SM 21/M01 A3040 RMK AO2 T02111015

METAR KANK 252130Z AUTO 11011G15KT 10SM CLR A3043 RMK AO1
METAR KANK 252110Z AUTO 10009G15KT 10SM CLR A3044 RMK AO1
METAR KANK 252050Z AUTO 12012KT 10SM CLR A3045 RMK AO1

METAR KMYP 251907Z AUTO 27017G21KT 10SM CLR 11/M05 A3080 RMK AO2
METAR KMYP 251855Z AUTO 28016G28KT 10SM CLR 11/M06 A3081 RMK AO2


KTEX 251720Z 2518/2618 VRB04KT P6SM SKC
     FM252000 26007KT P6SM FEW100 SCT200
     FM260100 13004KT P6SM SKC
METAR KTEX 252135Z AUTO 20006KT 10SM OVC080 18/M04 A3052 RMK AO2
METAR KTEX 252115Z AUTO 31003KT 10SM OVC090 18/M05 A3051 RMK AO2
METAR KTEX 252055Z AUTO 27010KT 10SM OVC090 20/M06 A3051 RMK AO2

METAR K04V 252135Z AUTO 15006KT 10SM 23/00 A3040 RMK AO2
METAR K04V 252115Z AUTO 17009KT 10SM 23/00 A3040 RMK AO2
METAR K04V 252055Z AUTO 16004G14KT 10SM 22/00 A3041 RMK AO2

METAR KCEZ 252053Z AUTO 22011KT 10SM CLR 26/04 A3030 RMK AO2 SLP201
       T02610039 58013
METAR KCEZ 251953Z AUTO 22012G19KT 10SM CLR 26/04 A3031 RMK AO2 SLP204
       T02610044
METAR KCEZ 251853Z AUTO 23008KT 10SM CLR 24/03 A3033 RMK AO2 SLP210
       T02440033

KDRO 251720Z 2518/2618 11007KT P6SM SKC
     FM252000 21007KT P6SM FEW250
     FM260200 03005KT P6SM FEW250
METAR KDRO 252053Z AUTO 27008KT 10SM SCT080 25/06 A3035 RMK AO2 SLP205
       T02500061 58016
METAR KDRO 251953Z AUTO 18007KT 10SM CLR 24/06 A3037 RMK AO2 SLP214
       T02390056
METAR KDRO 251853Z AUTO 14008KT 110V180 10SM CLR 24/06 A3039 RMK AO2
       SLP218 T02390061

METAR KPSO 252135Z AUTO 23005G15KT 10SM CLR 23/M02 A3041 RMK AO2
       T02311025
METAR KPSO 252115Z AUTO 00000KT 10SM CLR 23/M02 A3042 RMK AO2
       T02271023
METAR KPSO 252055Z AUTO 20007KT 10SM SCT090 23/M05 A3042 RMK AO2
       T02321047

METAR KCPW 252135Z AUTO 22010G18KT 10SM CLR 12/M01 A3074 RMK AO2
METAR KCPW 252115Z AUTO 26010G23KT 220V280 10SM CLR 12/M02 A3074 RMK
       AO2
METAR KCPW 252055Z AUTO 25011G18KT 210V270 10SM CLR 12/M01 A3074 RMK
        AO2

KALS 251734Z 2518/2618 29006KT P6SM SKC
     FM252000 18010KT P6SM FEW080 SCT150
     FM260300 12005KT P6SM FEW150
METAR KALS 252052Z AUTO 21006KT 10SM CLR 23/M01 A3038 RMK AO2 SLP209
        T02331006 58020
METAR KALS 251952Z AUTO VRB03KT 10SM CLR 22/02 A3041 RMK AO2 SLP221
       T02170017
METAR KALS 251852Z AUTO 19003KT 10SM CLR 21/02 A3043 RMK AO2 SLP236
       T02060022

Sunrise/Sunset for 09/25/2022
Vail    - 06:56:12 MDT / 18:57:53 MDT
Durango - 07:02:07 MDT / 19:04:04 MDT
Alamosa - 06:54:08 MDT / 18:56:04 MDT

Grand Junction (KGJX) 09/25/22 21:34 UTC
Radar VAD winds      Height      Dir/Spd(kt)
                  17000 FT MSL...029/013
                  16300 FT MSL...020/013
                  16000 FT MSL...018/013
                  15000 FT MSL...020/008
                  14600 FT MSL...190/004
                  14000 FT MSL...175/005
                  13000 FT MSL...220/005
                  12900 FT MSL...245/005
                  12000 FT MSL...257/005
                  11000 FT MSL...309/004
                  10400 FT MSL...304/002
                  10300 FT MSL...351/005
                  10100 FT MSL...053/003

Grand Junction Aviation Discussion
Issued at 2055 UTC Sunday, September 25, 2022

.AVIATION...(For the 18Z TAFS through 18Z Monday afternoon)
Issued at 1120 AM MDT Sun Sep 25 2022
Dry northwest flow will continue to bring clear/mostly clear
skies to TAF sites throughout the next 24 hours with VFR
conditions prevailing at all sites. A weak push of moisture into
the San Juan Mountains from the southeast is expected to fuel
isolated to widely scattered showers and embedded thunderstorms
after 19Z, and on through 01Z. However, this activity is not
expected to impact KTEX or KDRO. Winds will continue to be light
and terrain driven.


* * * * * Arizona * * * * *

KPGA 251720Z 2518/2618 01006KT P6SM SKC
METAR KPGA 252053Z AUTO VRB04KT 10SM CLR 28/M03 A3020 RMK AO2 SLP170
       T02781028 58020
METAR KPGA 251953Z AUTO VRB03KT 10SM CLR 27/M03 A3023 RMK AO2 SLP177
       T02721028
METAR KPGA 251853Z AUTO VRB04KT 10SM CLR 27/M02 A3025 RMK AO2 SLP187
       T02671017

METAR KRQE 252053Z AUTO 00000KT 10SM CLR 26/01 A3033 RMK AO2 SLP172
       T02560011 58014
METAR KRQE 251953Z AUTO VRB03KT 10SM CLR 25/02 A3034 RMK AO2 SLP181
       T02500017
METAR KRQE 251853Z AUTO 05007KT 10SM CLR 24/01 A3037 RMK AO2 SLP185
       T02440006

Flagstaff (KFSX) 09/25/22 21:33 UTC
Radar VAD winds      Height      Dir/Spd(kt)
                  15000 FT MSL...072/007
                  14500 FT MSL...039/009
                  14000 FT MSL...091/005
                  13100 FT MSL...103/005
                  13000 FT MSL...125/004
                  12000 FT MSL...104/007
                  11800 FT MSL...102/007
                  11000 FT MSL...108/007
                  10800 FT MSL...108/006
                  10000 FT MSL...108/006
                  10000 FT MSL...107/006
                   9200 FT MSL...107/007
                   9000 FT MSL...100/008
                   8500 FT MSL...102/006
                   8000 FT MSL...074/009
                   7800 FT MSL...055/009
                   7400 FT MSL...058/008
                   7300 FT MSL...104/005

Flagstaff Aviation Discussion
Issued at 2137 UTC Sunday, September 25, 2022

.AVIATION...For the 00Z TAF package...Expect mainly VFR conditions
and light winds for the 24 hour TAF forecast period. ISOLD SHRA/TSRA
possible through 01Z south of a KSOW-KSJN line. ISOLD-SCT SHRA/TSRA
push farther west AFT 18Z Monday, BECMG possible for areas east of
the I-17 corridor by afternoon. Brief MVFR and wind gusts to 40KTS
possible near storms. Aviation discussion not updated for TAF
amendments.


* * * * * Utah * * * * *

KSLC 251731Z 2518/2624 33007KT P6SM SKC
     FM260400 16006KT P6SM SKC
     FM261800 32007KT P6SM SKC
METAR KSLC 252054Z VRB03KT 10SM CLR 26/06 A3027 RMK AO2 SLP207 T02610056
        58015
METAR KSLC 251954Z 31008KT 10SM CLR 26/03 A3029 RMK AO2 SLP214
       T02560033
METAR KSLC 251854Z 36004KT 10SM CLR 26/02 A3030 RMK AO2 SLP217
       T02560022

KVEL 251720Z 2518/2618 VRB04KT P6SM SKC
METAR KVEL 252053Z AUTO VRB03KT 10SM CLR 24/M01 A3031 RMK AO2 SLP213
       T02441011 58020 $
METAR KVEL 251953Z AUTO 27003KT 10SM CLR 23/00 A3034 RMK AO2 SLP225
       T02330000 $
METAR KVEL 251853Z AUTO 16003KT 10SM CLR 21/02 A3037 RMK AO2 SLP239
       T02110017 $

METAR KPUC 252053Z AUTO VRB03KT 10SM CLR 25/M04 A3032 RMK AO2 SLP208
       T02501039 58014
METAR KPUC 251953Z AUTO 25004KT 10SM CLR 24/M03 A3034 RMK AO2 SLP217
       T02441028
METAR KPUC 251853Z AUTO 18005KT 10SM CLR 24/M02 A3036 RMK AO2 SLP224
       T02391022

KCNY 251720Z 2518/2618 VRB04KT P6SM SKC
METAR KCNY 252053Z AUTO 32006KT 10SM CLR 28/M02 A3022 RMK AO2 SLP188
        T02781022 57020
METAR KCNY 251953Z AUTO 32008KT 10SM CLR 27/M01 A3024 RMK AO2 SLP198
       T02671011
METAR KCNY 251853Z AUTO 10SM CLR 26/00 A3027 RMK AO2 SLP206
       T02610000


Salt Lake City (KMTX) 09/25/22 21:33 UTC
Radar VAD winds      Height      Dir/Spd(kt)
                  20000 FT MSL...321/003
                  19000 FT MSL...041/003
                  17000 FT MSL...356/005
                  16000 FT MSL...010/004
                  15500 FT MSL...351/004
                  15000 FT MSL...043/005
                  14000 FT MSL...057/005
                  13700 FT MSL...062/007
                  13000 FT MSL...058/006
                  12200 FT MSL...062/008
                  12000 FT MSL...062/009
                  11000 FT MSL...056/010
                  11000 FT MSL...056/010
                  10000 FT MSL...059/012
                  10000 FT MSL...058/012
                   9100 FT MSL...053/010
                   9000 FT MSL...055/013
                   8400 FT MSL...037/008
                   8000 FT MSL...036/008
                   7700 FT MSL...004/006
                   7000 FT MSL...012/007
                   6900 FT MSL...349/006
                   6900 FT MSL...340/005
                   6600 FT MSL...344/007

Salt Lake City Aviation Discussion
Issued at 2049 UTC Sunday, September 25, 2022

.AVIATION...KSLC...VFR conditions and clear skies are expected
for the valid TAF period. Light northwesterly flow will switch to
light southeasterly flow around 04-05z.
.REST OF UTAH AND SOUTHWEST WYOMING...VFR conditions and clear
skies will prevail for the valid TAF period. Light, diurnal winds
are expected.


* * * * * Wyoming * * * * *

KEVW 251731Z 2518/2618 35008KT P6SM SKC
     FM260400 14006KT P6SM SKC
     FM261700 26008KT P6SM SKC=
METAR KEVW 252053Z AUTO 30009G15KT 220V340 10SM CLR 23/M01 A3042 RMK AO2
       SLP220 T02331011 58014
METAR KEVW 251953Z AUTO VRB03KT 10SM CLR 22/M01 A3044 RMK AO2 SLP228
       T02221006
METAR KEVW 251853Z AUTO 10SM CLR 21/M01 A3046 RMK AO2 SLP233
       T02061011

KRKS 251729Z 2518/2618 VRB05KT P6SM SKC
     FM260300 20005KT P6SM SKC
     FM261700 25006KT P6SM SKC
METAR KRKS 252054Z AUTO 00000KT 10SM CLR 21/M02 A3040 RMK AO2 SLP228
       T02111022 58016
METAR KRKS 251954Z AUTO 00000KT 10SM CLR 19/M02 A3042 RMK AO2 SLP242
       T01941022
METAR KRKS 251854Z AUTO 15005KT 10SM CLR 19/M02 A3044 RMK AO2 SLP249
        T01941017

KRWL 251720Z 2518/2618 VRB05KT P6SM SKC
     FM252100 29008KT P6SM SKC
     FM260200 23007KT P6SM SKC
METAR KRWL 252053Z AUTO 35007KT 10SM CLR 22/M02 A3040 RMK AO2 SLP224
       T02171017 58014 $
METAR KRWL 251953Z AUTO 00000KT 10SM CLR 19/M02 A3042 RMK AO2 SLP231
       T01941017 $
METAR KRWL 251853Z AUTO VRB04KT 10SM CLR 19/M02 A3044 RMK AO2 SLP240
       T01891017 $

KLAR 251720Z 2518/2618 35005KT P6SM SKC
     FM252100 01011KT P6SM SKC
     FM260100 VRB06KT P6SM SKC
     FM260500 19007KT P6SM SKC
METAR KLAR 252053Z AUTO VRB04G14KT 10SM CLR 20/M01 A3041 RMK AO2 SLP218
       T02001011 58013
METAR KLAR 251953Z AUTO 01008KT 10SM CLR 19/M01 A3042 RMK AO2 SLP225
       T01941011
METAR KLAR 251853Z AUTO 01005KT 10SM CLR 18/M02 A3044 RMK AO2 SLP226
       T01781017

KCYS 251720Z 2518/2618 24005KT P6SM SKC
     FM260000 13008KT P6SM SKC
     FM260400 23006KT P6SM SKC
     FM260800 27007KT P6SM SKC
METAR KCYS 252053Z 26003KT 10SM CLR 21/02 A3037 RMK AO2 SLP225 T02060022
       58015 $
METAR KCYS 251953Z 00000KT 10SM CLR 20/02 A3039 RMK AO2 SLP232
       T02000017
METAR KCYS 251853Z 00000KT 10SM CLR 18/02 A3041 RMK AO2 SLP238
       T01830017

Riverton (KRIW) 09/25/22 21:36 UTC
Radar VAD winds      Height      Dir/Spd(kt)
                  16000 FT MSL...329/021
                  15000 FT MSL...321/024
                  14600 FT MSL...317/024
                  14000 FT MSL...313/023
                  13000 FT MSL...307/022
                  12700 FT MSL...307/020
                  12000 FT MSL...309/018
                  11200 FT MSL...309/016
                  11000 FT MSL...295/017
                  10000 FT MSL...283/013
                  10000 FT MSL...328/014
                   8100 FT MSL...040/004
                   8000 FT MSL...051/005
                   7300 FT MSL...071/006
                   7000 FT MSL...072/007
                   6700 FT MSL...070/005
                   6200 FT MSL...040/007
                   6000 FT MSL...042/007
                   5900 FT MSL...043/007

Cheyenne (KCYS) 09/25/22 21:39 UTC
Radar VAD winds      Height      Dir/Spd(kt)
                  16000 FT MSL...315/026
                  15100 FT MSL...318/025
                  15000 FT MSL...320/025
                  14000 FT MSL...321/025
                  13200 FT MSL...319/026
                  13000 FT MSL...319/025
                  12000 FT MSL...322/020
                  11800 FT MSL...321/020
                  11000 FT MSL...328/011
                  10600 FT MSL...346/013
                  10000 FT MSL...359/012
                   9500 FT MSL...003/012
                   9000 FT MSL...358/009
                   8600 FT MSL...000/008
                   8000 FT MSL...356/006
                   7900 FT MSL...012/007
                   7200 FT MSL...026/006
                   7000 FT MSL...013/006
                   6700 FT MSL...053/007
                   6500 FT MSL...015/007

Riverton Aviation Discussion
Issued at 2000 UTC Sunday, September 25, 2022

.AVIATION...(For the 18Z TAFS through 18Z Monday)
Issued at 200 PM MDT Sun Sep 25 2022
VFR conditions will prevail through the period at all the terminals.
Wind speeds will be light, generally 10 knots or less at the
terminal sites through Monday afternoon.
Please see the Aviation Weather Center and/or CWSU ZDV and ZLC for
the latest information on icing and turbulence forecasts.

Cheyenne Aviation Discussion
Issued at 2034 UTC Sunday, September 25, 2022

.AVIATION...(For the 18Z TAFS through 18Z Monday afternoon)
Issued at 1114 AM MDT Sun Sep 25 2022
VFR conditions will continue through the 18Z TAF period with
mostly clear skies and generally light winds, occasional wind
gusts 15 to 20 knots possible.


* * * * * Nebraska * * * * *

METAR KIBM 252135Z AUTO 28003KT 10SM CLR 21/02 A3031 RMK AO2
       T02100019
METAR KIBM 252115Z AUTO 26006KT 10SM CLR 23/02 A3032 RMK AO2
       T02250022
METAR KIBM 252055Z AUTO 27007KT 10SM CLR 22/02 A3032 RMK AO2
       T02160019

KSNY 251720Z 2518/2618 30008KT P6SM SKC
     FM260000 VRB06KT P6SM FEW250
     FM260700 20006KT P6SM SKC
METAR KSNY 252053Z AUTO VRB05KT 10SM CLR 24/02 A3028 RMK AO2 SLP223
       T02390022 57020
METAR KSNY 251953Z AUTO 36010KT 10SM CLR 24/02 A3030 RMK AO2 SLP227
       T02390022
METAR KSNY 251853Z AUTO 36008KT 300V030 10SM CLR 22/02 A3033 RMK AO2
       SLP241 T02220017

METAR KOGA 252135Z AUTO 34008G20KT 10SM CLR 26/02 A3024 RMK AO2
       T02550021
METAR KOGA 252115Z AUTO 36009G18KT 10SM CLR 26/03 A3024 RMK AO2
       T02560029
METAR KOGA 252055Z AUTO 35007G16KT 10SM CLR 26/03 A3025 RMK AO2
       T02570028

METAR KIML 252053Z AUTO 32007KT 10SM CLR 25/04 A3025 RMK AO2 SLP225
       T02500044 58022 $
METAR KIML 251953Z AUTO 35008G18KT 10SM CLR 24/05 A3027 RMK AO2 SLP233
       T02440050 $
METAR KIML 251853Z AUTO 31006G18KT 10SM CLR 23/04 A3030 RMK AO2 SLP243
       T02280044 $

KMCK 251720Z 2518/2618 32011KT P6SM SKC
METAR KMCK 252053Z AUTO 36007G16KT 320V030 10SM CLR 26/02 A3021 RMK AO2
       SLP217 T02610022 56025
METAR KMCK 251953Z AUTO 35009G16KT 10SM CLR 25/03 A3024 RMK AO2 SLP225
       T02500028
METAR KMCK 251853Z AUTO 33007KT 10SM CLR 24/03 A3026 RMK AO2 SLP235
       T02440028

North Platte (KLNX) 09/25/22 21:36 UTC
Radar VAD winds      Height      Dir/Spd(kt)
                  12000 FT MSL...328/025
                  11000 FT MSL...320/021
                  10900 FT MSL...321/022
                  10000 FT MSL...334/022
                   9300 FT MSL...332/022
                   9000 FT MSL...332/024
                   8000 FT MSL...334/024
                   7500 FT MSL...332/024
                   7000 FT MSL...334/025
                   6000 FT MSL...336/024
                   5800 FT MSL...335/025
                   5000 FT MSL...337/023
                   4100 FT MSL...337/023
                   4000 FT MSL...339/023
                   4000 FT MSL...341/023
                   3400 FT MSL...340/020

North Platte Aviation Discussion
Issued at 2039 UTC Sunday, September 25, 2022

.AVIATION...(For the 18Z TAFS through 18Z Monday afternoon)
Issued at 1225 PM CDT Sun Sep 25 2022
VFR conditions are expected to prevail through tomorrow afternoon.
Winds remain breezy from the northwest this afternoon, with gusts
of 15 to 25kts anticipated. Winds weaken near sunset and become
light and variable overnight.


* * * * * Kansas * * * * *

KGLD 251720Z 2518/2618 33006KT P6SM SKC
METAR KGLD 252053Z AUTO 29007KT 10SM CLR 24/02 A3027 RMK AO2 SLP226
       T02390022 57021 $
METAR KGLD 251953Z AUTO 36010G18KT 10SM CLR 24/02 A3030 RMK AO2 SLP233
       T02390017 $
METAR KGLD 251853Z AUTO 33009KT 10SM CLR 23/02 A3032 RMK AO2 SLP242
       T02280022 $

KGCK 251720Z 2518/2618 03010KT P6SM SKC
METAR KGCK 252054Z VRB05KT 10SM CLR 24/05 A3023 RMK AO2 SLP213 T02440050
       56023
METAR KGCK 251954Z VRB06KT 10SM CLR 24/06 A3025 RMK AO2 SLP220
       T02390056
METAR KGCK 251854Z 34010G19KT 10SM CLR 23/06 A3028 RMK AO2 SLP231
       T02330061

METAR KLBL 252056Z AUTO 04008KT 10SM CLR 27/06 A3024 RMK AO2 SLP216
       T02670056 57020
METAR KLBL 251956Z AUTO 05012KT 10SM CLR 26/06 A3026 RMK AO2 SLP223
       T02610056
METAR KLBL 251856Z AUTO 03014G17KT 10SM CLR 26/06 A3029 RMK AO2 SLP233
       T02560056

METAR KEHA 252135Z AUTO 05004KT 10SM CLR 26/03 A3028 RMK AO2
       T02570032
METAR KEHA 252115Z AUTO 34007KT 10SM CLR 26/03 A3029 RMK AO2
       T02600030
METAR KEHA 252055Z AUTO 04007KT 10SM CLR 26/03 A3029 RMK AO2
       T02610035

Goodland (KGLD) 09/25/22 21:37 UTC
Radar VAD winds      Height      Dir/Spd(kt)
                  15000 FT MSL...309/032
                  14900 FT MSL...307/034
                  14000 FT MSL...322/035
                  13000 FT MSL...318/033
                  12700 FT MSL...310/031
                  12000 FT MSL...310/030
                  11000 FT MSL...312/028
                  10700 FT MSL...313/028
                  10000 FT MSL...313/026
                   9300 FT MSL...316/019
                   9000 FT MSL...320/016
                   8100 FT MSL...340/014
                   8000 FT MSL...340/014
                   7000 FT MSL...340/015
                   7000 FT MSL...340/014
                   6200 FT MSL...338/015
                   6000 FT MSL...339/014
                   5400 FT MSL...336/015
                   5000 FT MSL...337/013
                   4800 FT MSL...334/013
                   4300 FT MSL...343/013
                   4100 FT MSL...342/013
                   4000 FT MSL...341/012

Dodge City (KDDC) 09/25/22 21:34 UTC
Radar VAD winds      Height      Dir/Spd(kt)
                  14000 FT MSL...323/043
                  13900 FT MSL...327/030
                  13000 FT MSL...318/038
                  12000 FT MSL...316/038
                  11700 FT MSL...317/037
                  11000 FT MSL...319/033
                  10000 FT MSL...327/031
                   9800 FT MSL...328/032
                   9000 FT MSL...331/032
                   8100 FT MSL...335/027
                   8000 FT MSL...338/025
                   7000 FT MSL...354/018
                   6900 FT MSL...354/018
                   6000 FT MSL...357/016
                   5900 FT MSL...357/017
                   5100 FT MSL...357/015
                   5000 FT MSL...000/015
                   4300 FT MSL...358/014
                   4000 FT MSL...001/015
                   3700 FT MSL...358/013
                   3200 FT MSL...358/014
                   3000 FT MSL...355/014
                   3000 FT MSL...355/014

Goodland Aviation Discussion
Issued at 2000 UTC Sunday, September 25, 2022

.AVIATION...(For the 18Z TAFS through 18Z Monday afternoon)
Issued at 1109 AM MDT Sun Sep 25 2022
VFR expected to prevail at both KGLD and KMCK under the influence
of surface high pressure centered over the northern Rockies.

Dodge City Aviation Discussion
Issued at 2127 UTC Sunday, September 25, 2022

.AVIATION...(For the 00Z TAFS through 00Z Monday evening)
Issued at 427 PM CDT Sun Sep 25 2022
Excellent flying weather will continue through this TAF cycle,
with VFR/SKC and light winds.


* * * * * Texas/Oklahoma * * * * *

KGUY 251734Z 2518/2618 04014G24KT P6SM SKC
     FM260000 08009KT P6SM SKC
     FM260300 VRB05KT P6SM SKC
     FM261500 21011KT P6SM SKC=
METAR KGUY 252053Z AUTO 05009G17KT 10SM CLR 28/04 A3023 RMK AO2 RAE26
       SLP195 P0000 60000 T02780039 56020 $
METAR KGUY 251953Z AUTO 04007G19KT 010V080 10SM -RA CLR 27/04 A3025 RMK
       AO2 RAB1855 SLP204 P0000 T02720044 $
METAR KGUY 251853Z AUTO 06012G19KT 10SM CLR 26/04 A3027 RMK AO2 RAE51
       SLP212 P0000 T02610044 $

KDHT 251734Z 2518/2618 04016KT P6SM SKC
     FM252200 08011KT P6SM SKC
     FM260500 VRB05KT P6SM FEW250
     FM261500 21014KT P6SM SKC
METAR KDHT 252053Z AUTO 05014KT 10SM CLR 27/03 A3027 RMK AO2 SLP202
       T02670033 56019
METAR KDHT 251953Z AUTO 06014KT 10SM CLR 26/03 A3029 RMK AO2 SLP207
       T02610028
METAR KDHT 251853Z AUTO 03014G26KT 10SM CLR 26/03 A3031 RMK AO2 PK WND
       04026/1850 SLP214 T02560033

Amarillo Aviation Discussion
Issued at 1921 UTC Sunday, September 25, 2022

.AVIATION...
(18Z TAFS)
Issued at 1235 PM CDT Sun Sep 25 2022
VFR conditions will prevail over the next 24 hours with mostly
clear skies and winds out of the northeast 15-20kts with gusts up
around 25kts. Winds should diminish gradually after 20z and become
more light and variable through the night. Winds expected to pick
up around 15z in the 10-15kt range out of the south to southwest.
Weber


* * * * * New Mexico * * * * *

KFMN 251734Z 2518/2618 13007KT P6SM SKC
     FM252000 17009KT P6SM SCT090
     FM260300 09008KT P6SM FEW100
METAR KFMN 252053Z 28005KT 10SM SCT090 28/06 A3026 RMK AO2 SLP195
       T02830056 58020
METAR KFMN 251953Z 12005KT 10SM CLR 28/06 A3028 RMK AO2 SLP201
       T02780056
METAR KFMN 251853Z VRB04KT 10SM CLR 25/04 A3030 RMK AO2 SLP211
       T02500044

METAR KSKX 252056Z AUTO 20011G15KT 10SM BKN110 23/03 A3039 RMK AO2
        LTG DSNT NW SLP243 60000 T02280033 56014
METAR KSKX 251956Z AUTO VRB04KT 10SM SCT075 OVC100 22/06 A3041 RMK AO2
       LTG DSNT NW RAB41E55 SLP245 P0000 T02220061
METAR KSKX 251856Z AUTO 00000KT 10SM SCT070 SCT090 21/05 A3043 RMK AO2
       SLP255 T02110050

KLVS 251734Z 2518/2618 05010KT P6SM FEW070
     FM252100 13011KT P6SM SCT080 SCT150
     FM260500 19008KT P6SM FEW070 FEW150
     FM261700 20010G16KT P6SM FEW070
METAR KLVS 252053Z AUTO 08007G14KT 10SM FEW070 23/03 A3041 RMK AO2
        SLP202 T02280028 58016
METAR KLVS 251953Z AUTO 10SM CLR 22/03 A3043 RMK AO2 SLP210 T02220033
METAR KLVS 251853Z AUTO 04007KT 10SM CLR 21/04 A3045 RMK AO2 SLP219
        T02110039

METAR KRTN 252053Z AUTO 20011KT 10SM CLR 24/04 A3036 RMK AO2 SLP200
       T02440039 57022
METAR KRTN 251953Z AUTO 22008KT 10SM CLR 24/04 A3038 RMK AO2 SLP209
       T02390039
METAR KRTN 251853Z AUTO 14003KT 10SM CLR 23/04 A3041 RMK AO2 SLP223
       T02280039

METAR KCAO 252055Z AUTO 06011G15KT 10SM CLR 24/02 A3032 RMK AO2 SLP215
       T02390022 56019
METAR KCAO 251955Z AUTO 07010G17KT 10SM CLR 24/02 A3034 RMK AO2 SLP222
       T02390022
METAR KCAO 251855Z AUTO 04015G20KT 10SM CLR 23/02 A3037 RMK AO2 SLP227
       T02280022

Albuquerque Aviation Discussion
Issued at 2109 UTC Sunday, September 25, 2022

.AVIATION...
(18Z TAFS)
Issued at 201 PM MDT Sun Sep 25 2022
VFR conditions are currently in place, and any disruptions to this
will be brief-lived and localized as isolated to scattered showers
and thunderstorms take shape over the high terrain through the
afternoon. Storms will be most prone to develop over the northern
and southern peaks, producing the usual aviation hazards of small
hail, gusty downburst winds and lightning along with any
downpours. Storms will mostly diminish and come to an end before
midnight. Moderately gusty winds (to 25 to 30 kt) will continue
in some areas as a weak backdoor cold front washes out over the
area through the early evening. Storms on Monday will be fairly
similar in coverage.

* * * * * Winds and Temperatures Aloft Forecasts * * * * *

DATA BASED ON 251200Z
VALID 251800Z   FOR USE 1700-2100Z. TEMPS NEG ABV 24000
FT  3000    6000   9000    12000   18000   24000  30000  34000  39000
SLC      9900    0505+11 0806+05 9900-10 9900-23 292036 283245 284153
BCE                      1109+05 9900-09 3014-19 292534 282644 292654
LND              9900+10 3211+04 3320-09 3217-22 291339 281348 303154
RKS              9900    3309+04 3310-09 3209-22 250639 302246 303854
GJT              0607+12 9900+06 0905-09 9900-22 302935 304144 304253
FMN              1615+13 1509+07 9900-09 3115-20 303333 303444 313354
ABQ              1117+12 1518+06 2706-08 3213-19 312333 302044 312155
MBW              9900    3110+02 3324-09 3221-22 312238 302048 313254
DEN              1908+09 2908+04 3417-09 3115-22 321338 312047 304054
PUB              1707+08 2413+04 3211-09 3106-22 311937 313445 303854
ALS                      2112+06 9900-09 3208-21 303235 304244 304253
TCC      0518    0817+12 0614+05 3005-10 3215-20 303533 293643 303354
BFF      3105    3317+06 3227+00 3329-09 3231-22 313839 314248 314054
GLD      3410    3422+07 3127+02 3226-09 3325-21 312938 312848 313754
GCK      0114+12 3323+08 3227+02 3224-09 3227-21 332338 312647 304353
GAG      0323+14 3315+10 3216+03 3118-09 3218-22 322337 304445 304853
AMA      0523    0610+12 0709+04 3207-09 3513-21 303934 294643 304254
---------------------------------------------------------------------

DATA BASED ON 251200Z
VALID 260000Z   FOR USE 2100-0600Z. TEMPS NEG ABV 24000
FT  3000    6000   9000    12000   18000   24000  30000  34000  39000
SLC      9900    9900+13 0907+07 9900-10 9900-23 292136 293245 284252
BCE                      9900+07 9900-09 3115-19 292934 283144 283054
LND              9900+12 2909+06 3214-10 3117-22 341339 341548 303054
RKS              9900    3305+06 3210-10 3209-23 311638 312846 303553
GJT              3605+15 9900+07 0605-09 9900-23 313235 304644 304753
FMN              1707+16 1808+07 9900-09 3117-20 313233 303444 323453
ABQ              1410+15 1410+06 3207-10 3216-19 312533 312443 322354
MBW              3305    3108+04 3321-09 3321-22 322839 322549 313354
DEN              0805+11 3208+05 3223-09 3122-22 331739 322747 314154
PUB              1607+10 3017+07 3314-09 3312-23 321438 313545 314153
ALS                      2108+07 3412-10 3406-22 313435 314844 314453
TCC      0915    1307+13 9900+06 3508-10 3215-20 313933 304343 303754
BFF      3506    3208+07 3228+01 3329-09 3335-22 324139 314449 314555
GLD      3608    3319+07 3127+03 3226-08 3224-22 323039 323148 313155
GCK      3609+15 3323+09 3132+04 3225-09 3325-22 322338 322448 314054
GAG      0213+14 3321+11 3328+04 3226-09 3423-22 321238 303445 304154
AMA      0714    9900+12 3007+05 3416-10 3607-22 303235 294344 304354
---------------------------------------------------------------------

DATA BASED ON 251200Z
VALID 261200Z   FOR USE 0600-1700Z. TEMPS NEG ABV 24000
FT  3000    6000   9000    12000   18000   24000  30000  34000  39000
SLC      9900    0805+13 9900+06 1506-10 9900-22 301937 302547 292855
BCE                      1210+06 0106-09 3311-20 302235 293445 283155
LND              3206+12 3306+06 3313-10 9900-21 062038 051849 300657
RKS              9900    3309+05 3109-10 9900-22 081938 031048 311755
GJT              9900+14 2607+06 0605-10 1210-23 321837 313046 313853
FMN              1908+13 9900+05 1108-10 3311-21 313135 314344 303654
ABQ              1605+11 9900+05 9900-11 3316-20 322834 323244 302754
MBW              3116    3319+05 3323-09 3419-21 023338 012549 352258
DEN              3310+11 3317+05 3418-10 3315-22 021838 022549 332156
PUB              3008+11 3312+06 3317-10 3411-22 011839 342846 323354
ALS                      3113+05 0205-10 0707-23 332236 323845 314753
TCC      1911    2711+10 3107+05 0405-10 3409-22 323335 324544 314553
BFF      2116    3014+09 3321+03 3237-09 3339-21 364339 354449 354757
GLD      2112    2815+09 3321+02 3335-10 3336-22 343438 353548 343457
GCK      9900+13 3218+09 3427+02 3429-09 3228-23 352438 353048 333555
GAG      0212+13 3527+08 3330+02 3324-09 3218-22 332339 342948 323254
AMA      9900    2910+10 3317+03 3414-09 3308-23 332337 323745 324753
---------------------------------------------------------------------

This product is updated automatically at approximately 10, 30 and 50
minutes after each hour, 24 hours per day, 7 days per week.  It may
become unavailable at times due to system outages without prior notice.
Users are advised to check the time at the top of the product to ensure
that it is current.  Furthermore, content and format of the product are
subject to change without prior notice.

Comments and suggestions are welcome and should be directed to one of
the addresses or phone numbers shown at the bottom of this page.  In
order to expedite a response to comments or suggestions, be sure to
mention your interest in the hot-air balloon forecast.


USA.gov is the U.S. government's official web portal to all federal, state and local government web resources and services.